Durango, CO

3:04 AM MDT on October 02, 2014 (GMT -0600)
Pagosa Springs | Change Station
CLOSE
Current Station
Airport
Location: Pagosa Springs,
Elevation: 7657 ft
Nearby Weather Stations
Active Advisory: Freeze Warning

Elev 7657 ft 37.29 °N, 107.06 °W | Updated 9 minutes ago

Partly Cloudy
Partly Cloudy
34 °F
Feels Like 30 °F
N
5
Wind Variable Wind from NE

Today
High -- | Low -- °F
--% Chance of Precip.
Yesterday
High -- | Low -- °F
Precip. -- in
7:07 AM 6:52 PM
First Quarter, 56% visible
Pressure 30.12 in
Visibility 10.0 miles
Clouds Scattered Clouds 7000 ft
Windchill 30 °F
Dew Point 30 °F
Humidity 84%
Rainfall 0.00 in
Snow Depth Not available.
UV 0 out of 12
Pollen 4.80 out of 12
Air Quality Not available.
Flu Activity Not available.
METAR KPSO 020855Z AUTO 04004KT 10SM SCT070 01/M01 A3012 RMK AO2 T00111014

More Conditions Fewer Conditions

Pressure 30.12 in
Visibility 10.0 miles
Clouds Scattered Clouds 7000 ft
Windchill 30 °F
Dew Point 30 °F
Humidity 84%
Rainfall 0.00 in
Snow Depth Not available.
UV 0 out of 12
Pollen 4.80 out of 12
Air Quality Not available.
Flu Activity Not available.
METAR KPSO 020855Z AUTO 04004KT 10SM SCT070 01/M01 A3012 RMK AO2 T00111014

More Conditions Fewer Conditions

10-Day Weather Forecast

Almanac

Astronomy

Oct. 02, 2014 Rise Set
Actual Time 7:07 AM MDT 6:52 PM MDT
Civil Twilight 6:41 AM MDT 7:18 PM MDT
Nautical Twilight 6:11 AM MDT 7:49 PM MDT
Astronomical Twilight 5:41 AM MDT 8:19 PM MDT
Moon 2:55 PM MDT 12:34 AM MDT
Length of Visible Light 12h 37m
Length of Day
11h 45m
Tomorrow will be 2m 22s shorter.
First Quarter, 56% of the Moon is Illuminated
Today
First Quarter
Oct 8
Full
Oct 15
Last Quarter
Oct 23
New
Oct 30
First Quarter

Today's Extremes

State Highs State Lows

Community

WunderPhotos

Upload Photos

1,758,196 photos uploaded!

WunderBlogs® & News

By Dr. Jeff Masters
Director of Meteorology, Weather Underground
By Kari Strenfel
Meteorologist, Weather Underground
By Christopher C. Burt
Weather Historian, Weather Underground
October 2, 2014
October 2, 2014
October 2, 2014

Nearby

Snow Depth

Station Depth Elevation
Stillwater Creek 0 in 8720 ft
Ivanhoe 2 in 10400 ft
Cumbres Trestle 0 in 10020 ft
Jackwhacker Gulch 0 in 10960 ft
Michigan Creek 0 in 10600 ft

Earthquake Activity

City Distance Mag. Time & Date
No recent earthquake activity has been reported nearby.
Minimum magnitude displayed is 2.5.

Coastal Water Temperatures

Place Temperature
No Stations Reporting

Nearby Weather Stations